sensor_id;sensor_type;location;lat;lon;timestamp;temperature;humidity
59556;DHT22;45374;52.746;6.304;2023-04-24T00:02:18;10.20;99.90
59556;DHT22;45374;52.746;6.304;2023-04-24T00:04:44;10.20;99.90
59556;DHT22;45374;52.746;6.304;2023-04-24T00:07:12;10.20;99.90
59556;DHT22;45374;52.746;6.304;2023-04-24T00:09:38;10.10;99.90
59556;DHT22;45374;52.746;6.304;2023-04-24T00:12:04;10.00;99.90
59556;DHT22;45374;52.746;6.304;2023-04-24T00:14:31;10.00;99.90
59556;DHT22;45374;52.746;6.304;2023-04-24T00:16:56;10.00;99.90
59556;DHT22;45374;52.746;6.304;2023-04-24T00:19:22;10.10;99.90
59556;DHT22;45374;52.746;6.304;2023-04-24T00:21:48;10.10;99.90
59556;DHT22;45374;52.746;6.304;2023-04-24T00:24:16;10.00;99.90
59556;DHT22;45374;52.746;6.304;2023-04-24T00:26:41;10.10;99.90
59556;DHT22;45374;52.746;6.304;2023-04-24T00:29:07;10.10;99.90
59556;DHT22;45374;52.746;6.304;2023-04-24T00:31:33;10.00;99.90
59556;DHT22;45374;52.746;6.304;2023-04-24T00:34:00;10.10;99.90
59556;DHT22;45374;52.746;6.304;2023-04-24T00:36:26;10.10;99.90
59556;DHT22;45374;52.746;6.304;2023-04-24T00:38:53;10.10;99.90
59556;DHT22;45374;52.746;6.304;2023-04-24T00:41:19;10.00;99.90
59556;DHT22;45374;52.746;6.304;2023-04-24T00:43:45;10.00;99.90
59556;DHT22;45374;52.746;6.304;2023-04-24T00:46:11;10.00;99.90
59556;DHT22;45374;52.746;6.304;2023-04-24T00:48:39;10.10;99.90
59556;DHT22;45374;52.746;6.304;2023-04-24T00:51:04;10.10;99.90
59556;DHT22;45374;52.746;6.304;2023-04-24T00:53:30;10.00;99.90
59556;DHT22;45374;52.746;6.304;2023-04-24T00:55:56;10.10;99.90
59556;DHT22;45374;52.746;6.304;2023-04-24T00:58:22;10.00;99.90
59556;DHT22;45374;52.746;6.304;2023-04-24T01:00:48;10.10;99.90
59556;DHT22;45374;52.746;6.304;2023-04-24T01:03:14;10.10;99.90
59556;DHT22;45374;52.746;6.304;2023-04-24T01:05:41;10.00;99.90
59556;DHT22;45374;52.746;6.304;2023-04-24T01:08:06;10.10;99.90
59556;DHT22;45374;52.746;6.304;2023-04-24T01:10:33;10.10;99.90
59556;DHT22;45374;52.746;6.304;2023-04-24T01:13:00;10.00;99.90
59556;DHT22;45374;52.746;6.304;2023-04-24T01:15:25;10.10;99.90
59556;DHT22;45374;52.746;6.304;2023-04-24T01:17:51;10.10;99.90
59556;DHT22;45374;52.746;6.304;2023-04-24T01:20:17;10.10;99.90
59556;DHT22;45374;52.746;6.304;2023-04-24T01:22:43;10.10;99.90
59556;DHT22;45374;52.746;6.304;2023-04-24T01:25:08;10.10;99.90
59556;DHT22;45374;52.746;6.304;2023-04-24T01:27:34;10.20;99.90
59556;DHT22;45374;52.746;6.304;2023-04-24T01:30:00;10.20;99.90
59556;DHT22;45374;52.746;6.304;2023-04-24T01:32:26;10.10;99.90
59556;DHT22;45374;52.746;6.304;2023-04-24T01:34:52;10.10;99.90
59556;DHT22;45374;52.746;6.304;2023-04-24T01:37:17;10.10;99.90
59556;DHT22;45374;52.746;6.304;2023-04-24T01:39:44;10.20;99.90
59556;DHT22;45374;52.746;6.304;2023-04-24T01:42:09;10.10;99.90
59556;DHT22;45374;52.746;6.304;2023-04-24T01:44:35;10.00;99.90
59556;DHT22;45374;52.746;6.304;2023-04-24T01:47:01;10.00;99.90
59556;DHT22;45374;52.746;6.304;2023-04-24T01:49:27;9.90;99.90
59556;DHT22;45374;52.746;6.304;2023-04-24T01:51:52;10.00;99.90
59556;DHT22;45374;52.746;6.304;2023-04-24T01:54:18;9.90;99.90
59556;DHT22;45374;52.746;6.304;2023-04-24T01:56:43;9.90;99.90
59556;DHT22;45374;52.746;6.304;2023-04-24T01:59:10;9.80;99.90
59556;DHT22;45374;52.746;6.304;2023-04-24T02:01:37;9.80;99.90
59556;DHT22;45374;52.746;6.304;2023-04-24T02:04:03;9.80;99.90
59556;DHT22;45374;52.746;6.304;2023-04-24T02:06:29;9.90;99.90
59556;DHT22;45374;52.746;6.304;2023-04-24T02:08:58;9.70;99.90
59556;DHT22;45374;52.746;6.304;2023-04-24T02:11:24;9.70;99.90
59556;DHT22;45374;52.746;6.304;2023-04-24T02:13:49;9.70;99.90
59556;DHT22;45374;52.746;6.304;2023-04-24T02:16:16;9.70;99.90
59556;DHT22;45374;52.746;6.304;2023-04-24T02:18:41;9.80;99.90
59556;DHT22;45374;52.746;6.304;2023-04-24T02:21:07;9.70;99.90
59556;DHT22;45374;52.746;6.304;2023-04-24T02:23:32;9.80;99.90
59556;DHT22;45374;52.746;6.304;2023-04-24T02:25:58;9.70;99.90
59556;DHT22;45374;52.746;6.304;2023-04-24T02:28:23;9.60;99.90
59556;DHT22;45374;52.746;6.304;2023-04-24T02:30:50;9.70;99.90
59556;DHT22;45374;52.746;6.304;2023-04-24T02:33:15;9.70;99.90
59556;DHT22;45374;52.746;6.304;2023-04-24T02:35:41;9.60;99.90
59556;DHT22;45374;52.746;6.304;2023-04-24T02:38:06;9.70;99.90
59556;DHT22;45374;52.746;6.304;2023-04-24T02:40:32;9.60;99.90
59556;DHT22;45374;52.746;6.304;2023-04-24T02:42:58;9.60;99.90
59556;DHT22;45374;52.746;6.304;2023-04-24T02:45:23;9.60;99.90
59556;DHT22;45374;52.746;6.304;2023-04-24T02:47:49;9.70;99.90
59556;DHT22;45374;52.746;6.304;2023-04-24T02:50:14;9.60;99.90
59556;DHT22;45374;52.746;6.304;2023-04-24T02:52:40;9.60;99.90
59556;DHT22;45374;52.746;6.304;2023-04-24T02:55:06;9.50;99.90
59556;DHT22;45374;52.746;6.304;2023-04-24T02:57:33;9.60;99.90
59556;DHT22;45374;52.746;6.304;2023-04-24T02:59:59;9.60;99.90
59556;DHT22;45374;52.746;6.304;2023-04-24T03:02:25;9.50;99.90
59556;DHT22;45374;52.746;6.304;2023-04-24T03:04:50;9.60;99.90
59556;DHT22;45374;52.746;6.304;2023-04-24T03:07:16;9.50;99.90
59556;DHT22;45374;52.746;6.304;2023-04-24T03:09:41;9.50;99.90
59556;DHT22;45374;52.746;6.304;2023-04-24T03:12:07;9.50;99.90
59556;DHT22;45374;52.746;6.304;2023-04-24T03:14:33;9.50;99.90
59556;DHT22;45374;52.746;6.304;2023-04-24T03:16:58;9.60;99.90
59556;DHT22;45374;52.746;6.304;2023-04-24T03:19:24;9.60;99.90
59556;DHT22;45374;52.746;6.304;2023-04-24T03:21:49;9.60;99.90
59556;DHT22;45374;52.746;6.304;2023-04-24T03:24:15;9.70;99.90
59556;DHT22;45374;52.746;6.304;2023-04-24T03:26:41;9.60;99.90
59556;DHT22;45374;52.746;6.304;2023-04-24T03:29:06;9.70;99.90
59556;DHT22;45374;52.746;6.304;2023-04-24T03:31:32;9.60;99.90
59556;DHT22;45374;52.746;6.304;2023-04-24T03:33:57;9.60;99.90
59556;DHT22;45374;52.746;6.304;2023-04-24T03:36:23;9.60;99.90
59556;DHT22;45374;52.746;6.304;2023-04-24T03:38:49;9.70;99.90
59556;DHT22;45374;52.746;6.304;2023-04-24T03:41:14;9.70;99.90
59556;DHT22;45374;52.746;6.304;2023-04-24T03:43:40;9.70;99.90
59556;DHT22;45374;52.746;6.304;2023-04-24T03:46:05;9.70;99.90
59556;DHT22;45374;52.746;6.304;2023-04-24T03:48:31;9.60;99.90
59556;DHT22;45374;52.746;6.304;2023-04-24T03:50:56;9.60;99.90
59556;DHT22;45374;52.746;6.304;2023-04-24T03:53:22;9.50;99.90
59556;DHT22;45374;52.746;6.304;2023-04-24T03:55:48;9.40;99.90
59556;DHT22;45374;52.746;6.304;2023-04-24T03:58:13;9.40;99.90
59556;DHT22;45374;52.746;6.304;2023-04-24T04:00:40;9.30;99.90
59556;DHT22;45374;52.746;6.304;2023-04-24T04:03:06;9.20;99.90
59556;DHT22;45374;52.746;6.304;2023-04-24T04:05:31;9.20;99.90
59556;DHT22;45374;52.746;6.304;2023-04-24T04:07:57;9.30;99.90
59556;DHT22;45374;52.746;6.304;2023-04-24T04:10:22;9.10;99.90
59556;DHT22;45374;52.746;6.304;2023-04-24T04:12:48;9.10;99.90
59556;DHT22;45374;52.746;6.304;2023-04-24T04:15:14;9.10;99.90
59556;DHT22;45374;52.746;6.304;2023-04-24T04:17:39;9.10;99.90
59556;DHT22;45374;52.746;6.304;2023-04-24T04:20:06;9.20;99.90
59556;DHT22;45374;52.746;6.304;2023-04-24T04:22:35;9.10;99.90
59556;DHT22;45374;52.746;6.304;2023-04-24T04:25:01;9.10;99.90
59556;DHT22;45374;52.746;6.304;2023-04-24T04:27:26;9.20;99.90
59556;DHT22;45374;52.746;6.304;2023-04-24T04:29:53;9.20;99.90
59556;DHT22;45374;52.746;6.304;2023-04-24T04:32:19;9.10;99.90
59556;DHT22;45374;52.746;6.304;2023-04-24T04:34:44;9.10;99.90
59556;DHT22;45374;52.746;6.304;2023-04-24T04:37:11;9.10;99.90
59556;DHT22;45374;52.746;6.304;2023-04-24T04:39:38;9.30;99.90
59556;DHT22;45374;52.746;6.304;2023-04-24T04:42:03;9.20;99.90
59556;DHT22;45374;52.746;6.304;2023-04-24T04:44:29;9.20;99.90
59556;DHT22;45374;52.746;6.304;2023-04-24T04:46:56;9.10;99.90
59556;DHT22;45374;52.746;6.304;2023-04-24T04:49:22;9.30;99.90
59556;DHT22;45374;52.746;6.304;2023-04-24T04:51:49;9.30;99.90
59556;DHT22;45374;52.746;6.304;2023-04-24T04:54:16;9.30;99.90
59556;DHT22;45374;52.746;6.304;2023-04-24T04:56:41;9.30;99.90
59556;DHT22;45374;52.746;6.304;2023-04-24T04:59:07;9.30;99.90
59556;DHT22;45374;52.746;6.304;2023-04-24T05:01:32;9.40;99.90
59556;DHT22;45374;52.746;6.304;2023-04-24T05:03:58;9.50;99.90
59556;DHT22;45374;52.746;6.304;2023-04-24T05:06:24;9.50;99.90
59556;DHT22;45374;52.746;6.304;2023-04-24T05:08:50;9.60;99.90
59556;DHT22;45374;52.746;6.304;2023-04-24T05:11:16;9.80;99.90
59556;DHT22;45374;52.746;6.304;2023-04-24T05:13:42;9.80;99.90
59556;DHT22;45374;52.746;6.304;2023-04-24T05:16:07;9.60;99.90
59556;DHT22;45374;52.746;6.304;2023-04-24T05:18:33;9.70;99.90
59556;DHT22;45374;52.746;6.304;2023-04-24T05:20:58;9.80;99.90
59556;DHT22;45374;52.746;6.304;2023-04-24T05:23:25;9.90;99.90
59556;DHT22;45374;52.746;6.304;2023-04-24T05:25:50;9.70;99.90
59556;DHT22;45374;52.746;6.304;2023-04-24T05:28:16;9.70;99.90
59556;DHT22;45374;52.746;6.304;2023-04-24T05:30:41;9.60;99.90
59556;DHT22;45374;52.746;6.304;2023-04-24T05:33:07;9.60;99.90
59556;DHT22;45374;52.746;6.304;2023-04-24T05:35:33;9.70;99.90
59556;DHT22;45374;52.746;6.304;2023-04-24T05:38:00;9.70;99.90
59556;DHT22;45374;52.746;6.304;2023-04-24T05:40:25;9.60;99.90
59556;DHT22;45374;52.746;6.304;2023-04-24T05:42:51;9.50;99.90
59556;DHT22;45374;52.746;6.304;2023-04-24T05:45:17;9.50;99.90
59556;DHT22;45374;52.746;6.304;2023-04-24T05:47:45;9.60;99.90
59556;DHT22;45374;52.746;6.304;2023-04-24T05:50:11;9.50;99.90
59556;DHT22;45374;52.746;6.304;2023-04-24T05:52:37;9.50;99.90
59556;DHT22;45374;52.746;6.304;2023-04-24T05:55:03;9.70;99.90
59556;DHT22;45374;52.746;6.304;2023-04-24T05:57:28;9.60;99.90
59556;DHT22;45374;52.746;6.304;2023-04-24T05:59:54;9.40;99.90
59556;DHT22;45374;52.746;6.304;2023-04-24T06:02:19;9.50;99.90
59556;DHT22;45374;52.746;6.304;2023-04-24T06:04:45;9.40;99.90
59556;DHT22;45374;52.746;6.304;2023-04-24T06:07:11;9.40;99.90
59556;DHT22;45374;52.746;6.304;2023-04-24T06:09:36;9.50;99.90
59556;DHT22;45374;52.746;6.304;2023-04-24T06:12:02;9.40;99.90
59556;DHT22;45374;52.746;6.304;2023-04-24T06:14:28;9.30;99.90
59556;DHT22;45374;52.746;6.304;2023-04-24T06:16:53;9.50;99.90
59556;DHT22;45374;52.746;6.304;2023-04-24T06:19:19;9.40;99.90
59556;DHT22;45374;52.746;6.304;2023-04-24T06:21:44;9.40;99.90
59556;DHT22;45374;52.746;6.304;2023-04-24T06:24:10;9.60;99.90
59556;DHT22;45374;52.746;6.304;2023-04-24T06:26:36;9.40;99.90
59556;DHT22;45374;52.746;6.304;2023-04-24T06:29:01;9.30;99.90
59556;DHT22;45374;52.746;6.304;2023-04-24T06:31:27;9.30;99.90
59556;DHT22;45374;52.746;6.304;2023-04-24T06:33:52;9.30;99.90
59556;DHT22;45374;52.746;6.304;2023-04-24T06:36:18;9.30;99.90
59556;DHT22;45374;52.746;6.304;2023-04-24T06:38:44;9.40;99.90
59556;DHT22;45374;52.746;6.304;2023-04-24T06:41:10;9.50;99.90
59556;DHT22;45374;52.746;6.304;2023-04-24T06:43:35;9.30;99.90
59556;DHT22;45374;52.746;6.304;2023-04-24T06:46:01;9.30;99.90
59556;DHT22;45374;52.746;6.304;2023-04-24T06:48:28;9.30;99.90
59556;DHT22;45374;52.746;6.304;2023-04-24T06:50:54;9.20;99.90
59556;DHT22;45374;52.746;6.304;2023-04-24T06:53:20;9.20;99.90
59556;DHT22;45374;52.746;6.304;2023-04-24T06:55:45;9.10;99.90
59556;DHT22;45374;52.746;6.304;2023-04-24T06:58:11;9.30;99.90
59556;DHT22;45374;52.746;6.304;2023-04-24T07:00:37;9.20;99.90
59556;DHT22;45374;52.746;6.304;2023-04-24T07:03:03;9.30;99.90
59556;DHT22;45374;52.746;6.304;2023-04-24T07:05:30;9.10;99.90
59556;DHT22;45374;52.746;6.304;2023-04-24T07:07:56;9.40;99.90
59556;DHT22;45374;52.746;6.304;2023-04-24T07:10:24;9.30;99.90
59556;DHT22;45374;52.746;6.304;2023-04-24T07:12:49;9.30;99.90
59556;DHT22;45374;52.746;6.304;2023-04-24T07:15:15;9.10;99.90
59556;DHT22;45374;52.746;6.304;2023-04-24T07:17:41;9.30;99.90
59556;DHT22;45374;52.746;6.304;2023-04-24T07:20:10;9.30;99.90
59556;DHT22;45374;52.746;6.304;2023-04-24T07:22:37;9.10;99.90
59556;DHT22;45374;52.746;6.304;2023-04-24T07:25:03;9.30;99.90
59556;DHT22;45374;52.746;6.304;2023-04-24T07:27:28;9.10;99.90
59556;DHT22;45374;52.746;6.304;2023-04-24T07:29:54;9.10;99.90
59556;DHT22;45374;52.746;6.304;2023-04-24T07:32:19;9.00;99.90
59556;DHT22;45374;52.746;6.304;2023-04-24T07:34:45;9.20;99.90
59556;DHT22;45374;52.746;6.304;2023-04-24T07:37:11;9.30;99.90
59556;DHT22;45374;52.746;6.304;2023-04-24T07:39:36;9.10;99.90
59556;DHT22;45374;52.746;6.304;2023-04-24T07:42:02;9.30;99.90
59556;DHT22;45374;52.746;6.304;2023-04-24T07:44:28;9.10;99.90
59556;DHT22;45374;52.746;6.304;2023-04-24T07:46:54;9.20;99.90
59556;DHT22;45374;52.746;6.304;2023-04-24T07:49:21;9.40;99.90
59556;DHT22;45374;52.746;6.304;2023-04-24T07:51:46;9.40;99.90
59556;DHT22;45374;52.746;6.304;2023-04-24T07:54:12;9.20;99.90
59556;DHT22;45374;52.746;6.304;2023-04-24T07:56:38;9.40;99.90
59556;DHT22;45374;52.746;6.304;2023-04-24T07:59:04;9.30;99.90
59556;DHT22;45374;52.746;6.304;2023-04-24T08:01:30;9.30;99.90
59556;DHT22;45374;52.746;6.304;2023-04-24T08:03:56;9.10;99.90
59556;DHT22;45374;52.746;6.304;2023-04-24T08:06:22;9.10;99.90
59556;DHT22;45374;52.746;6.304;2023-04-24T08:08:47;9.20;99.90
59556;DHT22;45374;52.746;6.304;2023-04-24T08:11:13;9.00;99.90
59556;DHT22;45374;52.746;6.304;2023-04-24T08:13:38;9.20;99.90
59556;DHT22;45374;52.746;6.304;2023-04-24T08:16:04;8.90;99.90
59556;DHT22;45374;52.746;6.304;2023-04-24T08:18:30;9.00;99.90
59556;DHT22;45374;52.746;6.304;2023-04-24T08:20:55;9.10;99.90
59556;DHT22;45374;52.746;6.304;2023-04-24T08:23:26;9.00;99.90
59556;DHT22;45374;52.746;6.304;2023-04-24T08:25:52;9.00;99.90
59556;DHT22;45374;52.746;6.304;2023-04-24T08:28:17;9.00;99.90
59556;DHT22;45374;52.746;6.304;2023-04-24T08:30:46;8.80;99.90
59556;DHT22;45374;52.746;6.304;2023-04-24T08:33:12;8.90;99.90
59556;DHT22;45374;52.746;6.304;2023-04-24T08:35:38;8.90;99.90
59556;DHT22;45374;52.746;6.304;2023-04-24T08:38:04;8.80;99.90
59556;DHT22;45374;52.746;6.304;2023-04-24T08:40:33;8.80;99.90
59556;DHT22;45374;52.746;6.304;2023-04-24T08:42:59;8.70;99.90
59556;DHT22;45374;52.746;6.304;2023-04-24T08:45:26;8.50;99.90
59556;DHT22;45374;52.746;6.304;2023-04-24T08:47:53;8.50;99.90
59556;DHT22;45374;52.746;6.304;2023-04-24T08:50:20;8.50;99.90
59556;DHT22;45374;52.746;6.304;2023-04-24T08:52:49;8.50;99.90
59556;DHT22;45374;52.746;6.304;2023-04-24T08:55:15;8.60;99.90
59556;DHT22;45374;52.746;6.304;2023-04-24T08:57:45;8.60;99.90
59556;DHT22;45374;52.746;6.304;2023-04-24T09:00:11;8.50;99.90
59556;DHT22;45374;52.746;6.304;2023-04-24T09:02:40;8.60;99.90
59556;DHT22;45374;52.746;6.304;2023-04-24T09:05:07;8.50;99.90
59556;DHT22;45374;52.746;6.304;2023-04-24T09:07:35;8.50;99.90
59556;DHT22;45374;52.746;6.304;2023-04-24T09:10:02;8.70;99.90
59556;DHT22;45374;52.746;6.304;2023-04-24T09:12:28;8.60;99.90
59556;DHT22;45374;52.746;6.304;2023-04-24T09:14:54;8.70;99.90
59556;DHT22;45374;52.746;6.304;2023-04-24T09:17:20;8.50;99.90
59556;DHT22;45374;52.746;6.304;2023-04-24T09:19:48;8.60;99.90
59556;DHT22;45374;52.746;6.304;2023-04-24T09:22:15;8.70;99.90
59556;DHT22;45374;52.746;6.304;2023-04-24T09:24:40;8.50;99.90
59556;DHT22;45374;52.746;6.304;2023-04-24T09:27:07;8.60;99.90
59556;DHT22;45374;52.746;6.304;2023-04-24T09:29:32;8.60;99.90
59556;DHT22;45374;52.746;6.304;2023-04-24T09:31:58;8.90;99.90
59556;DHT22;45374;52.746;6.304;2023-04-24T09:34:26;8.80;99.90
59556;DHT22;45374;52.746;6.304;2023-04-24T09:36:53;9.00;99.90
59556;DHT22;45374;52.746;6.304;2023-04-24T09:39:19;9.00;99.90
59556;DHT22;45374;52.746;6.304;2023-04-24T09:41:55;9.10;99.90
59556;DHT22;45374;52.746;6.304;2023-04-24T09:44:24;9.20;99.90
59556;DHT22;45374;52.746;6.304;2023-04-24T09:46:55;9.30;99.90
59556;DHT22;45374;52.746;6.304;2023-04-24T09:49:25;9.20;99.90
59556;DHT22;45374;52.746;6.304;2023-04-24T09:51:51;9.30;99.90
59556;DHT22;45374;52.746;6.304;2023-04-24T09:54:18;9.30;99.90
59556;DHT22;45374;52.746;6.304;2023-04-24T09:56:48;9.40;99.90
59556;DHT22;45374;52.746;6.304;2023-04-24T09:59:15;9.30;99.90
59556;DHT22;45374;52.746;6.304;2023-04-24T10:01:40;9.30;99.90
59556;DHT22;45374;52.746;6.304;2023-04-24T10:04:21;9.20;99.90
59556;DHT22;45374;52.746;6.304;2023-04-24T10:06:48;9.00;99.90
59556;DHT22;45374;52.746;6.304;2023-04-24T10:09:15;8.90;99.90
59556;DHT22;45374;52.746;6.304;2023-04-24T10:11:43;8.80;99.90
59556;DHT22;45374;52.746;6.304;2023-04-24T10:14:25;8.70;99.90
59556;DHT22;45374;52.746;6.304;2023-04-24T10:16:54;8.70;99.90
59556;DHT22;45374;52.746;6.304;2023-04-24T10:19:20;8.60;99.90
59556;DHT22;45374;52.746;6.304;2023-04-24T10:21:46;8.60;99.90
59556;DHT22;45374;52.746;6.304;2023-04-24T10:24:17;8.60;99.90
59556;DHT22;45374;52.746;6.304;2023-04-24T10:26:43;8.60;99.90
59556;DHT22;45374;52.746;6.304;2023-04-24T10:29:12;8.70;99.90
59556;DHT22;45374;52.746;6.304;2023-04-24T10:31:38;8.80;99.90
59556;DHT22;45374;52.746;6.304;2023-04-24T10:34:05;8.80;99.90
59556;DHT22;45374;52.746;6.304;2023-04-24T10:36:33;9.00;99.90
59556;DHT22;45374;52.746;6.304;2023-04-24T10:39:01;9.00;99.90
59556;DHT22;45374;52.746;6.304;2023-04-24T10:41:30;9.10;99.90
59556;DHT22;45374;52.746;6.304;2023-04-24T10:44:12;9.10;99.90
59556;DHT22;45374;52.746;6.304;2023-04-24T10:46:39;9.00;99.90
59556;DHT22;45374;52.746;6.304;2023-04-24T10:49:08;8.90;99.90
59556;DHT22;45374;52.746;6.304;2023-04-24T10:51:47;9.00;99.90
59556;DHT22;45374;52.746;6.304;2023-04-24T10:56:52;9.10;99.90
59556;DHT22;45374;52.746;6.304;2023-04-24T10:59:25;9.20;99.90
59556;DHT22;45374;52.746;6.304;2023-04-24T11:01:54;9.30;99.90
59556;DHT22;45374;52.746;6.304;2023-04-24T11:04:31;9.40;99.90
59556;DHT22;45374;52.746;6.304;2023-04-24T11:06:57;9.40;99.90
59556;DHT22;45374;52.746;6.304;2023-04-24T11:09:26;9.50;99.90
59556;DHT22;45374;52.746;6.304;2023-04-24T11:12:11;9.50;99.90
59556;DHT22;45374;52.746;6.304;2023-04-24T11:17:37;9.50;99.90
59556;DHT22;45374;52.746;6.304;2023-04-24T11:20:07;9.50;99.90
59556;DHT22;45374;52.746;6.304;2023-04-24T11:22:35;9.40;99.90
59556;DHT22;45374;52.746;6.304;2023-04-24T11:25:02;9.30;99.90
59556;DHT22;45374;52.746;6.304;2023-04-24T11:27:42;9.30;99.90
59556;DHT22;45374;52.746;6.304;2023-04-24T11:30:09;9.30;99.90
59556;DHT22;45374;52.746;6.304;2023-04-24T11:32:38;9.40;99.90
59556;DHT22;45374;52.746;6.304;2023-04-24T11:35:15;9.50;99.90
59556;DHT22;45374;52.746;6.304;2023-04-24T11:37:46;9.60;99.90
59556;DHT22;45374;52.746;6.304;2023-04-24T11:40:14;9.70;99.90
59556;DHT22;45374;52.746;6.304;2023-04-24T11:42:43;9.70;99.90
59556;DHT22;45374;52.746;6.304;2023-04-24T11:45:22;9.70;99.90
59556;DHT22;45374;52.746;6.304;2023-04-24T11:47:48;9.60;99.90
59556;DHT22;45374;52.746;6.304;2023-04-24T11:50:15;9.50;99.90
59556;DHT22;45374;52.746;6.304;2023-04-24T11:52:43;9.60;99.90
59556;DHT22;45374;52.746;6.304;2023-04-24T11:57:48;9.40;99.90
59556;DHT22;45374;52.746;6.304;2023-04-24T12:00:21;9.50;99.90
59556;DHT22;45374;52.746;6.304;2023-04-24T12:02:48;9.50;99.90
59556;DHT22;45374;52.746;6.304;2023-04-24T12:05:21;9.60;99.90
59556;DHT22;45374;52.746;6.304;2023-04-24T12:07:47;9.60;99.90
59556;DHT22;45374;52.746;6.304;2023-04-24T12:10:13;9.50;99.90
59556;DHT22;45374;52.746;6.304;2023-04-24T12:12:40;9.50;99.90
59556;DHT22;45374;52.746;6.304;2023-04-24T12:15:09;9.50;99.90
59556;DHT22;45374;52.746;6.304;2023-04-24T12:17:35;9.40;99.90
59556;DHT22;45374;52.746;6.304;2023-04-24T12:20:07;9.40;99.90
59556;DHT22;45374;52.746;6.304;2023-04-24T12:25:12;9.00;99.90
59556;DHT22;45374;52.746;6.304;2023-04-24T12:27:38;8.80;99.90
59556;DHT22;45374;52.746;6.304;2023-04-24T12:30:05;8.90;99.90
59556;DHT22;45374;52.746;6.304;2023-04-24T12:32:31;8.90;99.90
59556;DHT22;45374;52.746;6.304;2023-04-24T12:34:57;8.90;99.90
59556;DHT22;45374;52.746;6.304;2023-04-24T12:37:32;8.90;99.90
59556;DHT22;45374;52.746;6.304;2023-04-24T12:40:09;8.90;99.90
59556;DHT22;45374;52.746;6.304;2023-04-24T12:42:36;9.00;99.90
59556;DHT22;45374;52.746;6.304;2023-04-24T12:45:04;9.10;99.90
59556;DHT22;45374;52.746;6.304;2023-04-24T12:47:31;9.10;99.90
59556;DHT22;45374;52.746;6.304;2023-04-24T12:49:57;9.20;99.90
59556;DHT22;45374;52.746;6.304;2023-04-24T12:52:27;9.20;99.90
59556;DHT22;45374;52.746;6.304;2023-04-24T12:54:55;9.20;99.90
59556;DHT22;45374;52.746;6.304;2023-04-24T12:57:21;9.10;99.90
59556;DHT22;45374;52.746;6.304;2023-04-24T12:59:47;9.10;99.90
59556;DHT22;45374;52.746;6.304;2023-04-24T13:02:13;9.10;99.90
59556;DHT22;45374;52.746;6.304;2023-04-24T13:04:38;9.00;99.90
59556;DHT22;45374;52.746;6.304;2023-04-24T13:07:05;8.90;99.90
59556;DHT22;45374;52.746;6.304;2023-04-24T13:09:31;8.80;99.90
59556;DHT22;45374;52.746;6.304;2023-04-24T13:11:57;8.80;99.90
59556;DHT22;45374;52.746;6.304;2023-04-24T13:14:23;8.80;99.90
59556;DHT22;45374;52.746;6.304;2023-04-24T13:16:48;8.80;99.90
59556;DHT22;45374;52.746;6.304;2023-04-24T13:19:14;8.80;99.90
59556;DHT22;45374;52.746;6.304;2023-04-24T13:21:40;8.80;99.90
59556;DHT22;45374;52.746;6.304;2023-04-24T13:24:06;8.80;99.90
59556;DHT22;45374;52.746;6.304;2023-04-24T13:26:33;8.90;99.90
59556;DHT22;45374;52.746;6.304;2023-04-24T13:28:58;9.00;99.90
59556;DHT22;45374;52.746;6.304;2023-04-24T13:31:24;9.00;99.90
59556;DHT22;45374;52.746;6.304;2023-04-24T13:33:49;9.10;99.90
59556;DHT22;45374;52.746;6.304;2023-04-24T13:36:15;9.20;99.90
59556;DHT22;45374;52.746;6.304;2023-04-24T13:38:43;9.20;99.90
59556;DHT22;45374;52.746;6.304;2023-04-24T13:41:10;9.20;99.90
59556;DHT22;45374;52.746;6.304;2023-04-24T13:43:36;9.20;99.90
59556;DHT22;45374;52.746;6.304;2023-04-24T13:46:01;9.20;99.90
59556;DHT22;45374;52.746;6.304;2023-04-24T13:48:29;9.10;99.90
59556;DHT22;45374;52.746;6.304;2023-04-24T13:50:54;9.10;99.90
59556;DHT22;45374;52.746;6.304;2023-04-24T13:53:20;9.00;99.90
59556;DHT22;45374;52.746;6.304;2023-04-24T13:55:46;8.90;99.90
59556;DHT22;45374;52.746;6.304;2023-04-24T13:58:11;8.70;99.90
59556;DHT22;45374;52.746;6.304;2023-04-24T14:00:37;8.60;99.90
59556;DHT22;45374;52.746;6.304;2023-04-24T14:03:03;8.50;99.90
59556;DHT22;45374;52.746;6.304;2023-04-24T14:05:28;8.50;99.90
59556;DHT22;45374;52.746;6.304;2023-04-24T14:07:54;8.60;99.90
59556;DHT22;45374;52.746;6.304;2023-04-24T14:10:19;8.70;99.90
59556;DHT22;45374;52.746;6.304;2023-04-24T14:12:45;8.80;99.90
59556;DHT22;45374;52.746;6.304;2023-04-24T14:15:10;8.90;99.90
59556;DHT22;45374;52.746;6.304;2023-04-24T14:17:37;8.90;99.90
59556;DHT22;45374;52.746;6.304;2023-04-24T14:20:03;8.90;99.90
59556;DHT22;45374;52.746;6.304;2023-04-24T14:22:29;8.90;99.90
59556;DHT22;45374;52.746;6.304;2023-04-24T14:24:56;8.90;99.90
59556;DHT22;45374;52.746;6.304;2023-04-24T14:27:21;8.90;99.90
59556;DHT22;45374;52.746;6.304;2023-04-24T14:29:47;9.00;99.90
59556;DHT22;45374;52.746;6.304;2023-04-24T14:32:12;9.00;99.90
59556;DHT22;45374;52.746;6.304;2023-04-24T14:34:40;9.10;99.90
59556;DHT22;45374;52.746;6.304;2023-04-24T14:37:06;9.10;99.90
59556;DHT22;45374;52.746;6.304;2023-04-24T14:39:32;9.10;99.90
59556;DHT22;45374;52.746;6.304;2023-04-24T14:41:57;9.00;99.90
59556;DHT22;45374;52.746;6.304;2023-04-24T14:44:23;8.90;99.90
59556;DHT22;45374;52.746;6.304;2023-04-24T14:46:49;8.90;99.90
59556;DHT22;45374;52.746;6.304;2023-04-24T14:49:15;8.90;99.90
59556;DHT22;45374;52.746;6.304;2023-04-24T14:51:40;8.80;99.90
59556;DHT22;45374;52.746;6.304;2023-04-24T14:54:06;8.90;99.90
59556;DHT22;45374;52.746;6.304;2023-04-24T14:56:32;8.90;99.90
59556;DHT22;45374;52.746;6.304;2023-04-24T14:58:58;8.90;99.90
59556;DHT22;45374;52.746;6.304;2023-04-24T15:01:23;8.90;99.90
59556;DHT22;45374;52.746;6.304;2023-04-24T15:03:49;9.00;99.90
59556;DHT22;45374;52.746;6.304;2023-04-24T15:06:15;9.00;99.90
59556;DHT22;45374;52.746;6.304;2023-04-24T15:08:41;9.00;99.90
59556;DHT22;45374;52.746;6.304;2023-04-24T15:11:07;9.10;99.90
59556;DHT22;45374;52.746;6.304;2023-04-24T15:13:33;9.10;99.90
59556;DHT22;45374;52.746;6.304;2023-04-24T15:15:59;9.00;99.90
59556;DHT22;45374;52.746;6.304;2023-04-24T15:18:24;9.00;99.90
59556;DHT22;45374;52.746;6.304;2023-04-24T15:20:50;8.80;99.90
59556;DHT22;45374;52.746;6.304;2023-04-24T15:23:15;8.90;99.90
59556;DHT22;45374;52.746;6.304;2023-04-24T15:25:41;9.10;99.90
59556;DHT22;45374;52.746;6.304;2023-04-24T15:28:06;9.40;99.90
59556;DHT22;45374;52.746;6.304;2023-04-24T15:30:32;9.40;99.90
59556;DHT22;45374;52.746;6.304;2023-04-24T15:32:59;9.40;99.90
59556;DHT22;45374;52.746;6.304;2023-04-24T15:35:27;9.20;99.90
59556;DHT22;45374;52.746;6.304;2023-04-24T15:37:52;9.10;99.90
59556;DHT22;45374;52.746;6.304;2023-04-24T15:40:18;9.10;99.90
59556;DHT22;45374;52.746;6.304;2023-04-24T15:42:44;9.10;99.90
59556;DHT22;45374;52.746;6.304;2023-04-24T15:45:10;9.10;99.90
59556;DHT22;45374;52.746;6.304;2023-04-24T15:47:37;9.10;99.90
59556;DHT22;45374;52.746;6.304;2023-04-24T15:50:03;9.00;99.90
59556;DHT22;45374;52.746;6.304;2023-04-24T15:52:28;8.80;99.90